Flight Track Log - Related Links

Times and Time Zones

All times are in EDT time to prevent confusion due to time zone crossing. See the SKW4473 flight status page for this flight to view local times or setup timezone preferences in your user account.

Time Position Orientation Groundspeed Altitude Reporting Facility
EDT Latitude Longitude Course Direction KTS km/h feet Rate Location/Type
Thu 15:14:00 46.4117 -111.9865 183° South  Level FlightAware Approximate
Thu 15:15:00 46.3172 -111.9944 183° South  Level FlightAware Approximate
Thu 15:16:00 46.2230 -112.0068 190° South  Level FlightAware Approximate
Thu 15:16:20 46.3903 -111.9414 186° South 285 528 13.100  Level Salt Lake Center
Thu 15:17:00 46.1289 -112.0167 180° South  Level FlightAware Approximate
Thu 15:17:22 46.3011 -111.9519 185° South 317 587 14.900  Level Salt Lake Center
Thu 15:18:00 46.0347 -112.0264 188° South  Level FlightAware Approximate
Thu 15:18:24 46.1803 -111.9664 185° South 362 671 16.900  Level Salt Lake Center
Thu 15:19:00 45.9404 -112.0333 180° South  Level FlightAware Approximate
Thu 15:19:26 46.0717 -111.9803 185° South 387 716 17.900  Level Salt Lake Center
Thu 15:20:00 45.8467 -112.0500 180° South  Level FlightAware Approximate
Thu 15:20:27 45.9586 -111.9917 184° South 405 750 19.600  Level Salt Lake Center
Thu 15:21:29 45.8456 -112.0061 185° South 409 758 21.000 1.258 Climbing Salt Lake Center
Thu 15:22:31 45.7300 -112.0183 184° South 417 772 22.200 1.113 Climbing Salt Lake Center
Thu 15:23:33 45.6119 -112.0336 185° South 425 787 23.300 968 Climbing Salt Lake Center
Thu 15:24:35 45.4661 -112.0506 185° South 439 813 24.200 829 Climbing Salt Lake Center
Thu 15:25:36 45.3414 -112.0639 184° South 449 832 25.000 780 Climbing Salt Lake Center
Thu 15:26:38 45.2153 -112.0778 184° South 453 838 25.800 823 Climbing Salt Lake Center
Thu 15:27:40 45.0886 -112.0939 185° South 459 850 26.700 968 Climbing Salt Lake Center
Thu 15:28:42 44.9472 -112.1092 184° South 458 848 27.800 1.016 Climbing Salt Lake Center
Thu 15:29:44 44.8261 -112.1233 185° South 458 848 28.800 1.024 Climbing Salt Lake Center
Thu 15:30:45 44.6858 -112.1400 185° South 457 847 29.900 1.024 Climbing Salt Lake Center
Thu 15:31:47 44.5658 -112.1531 184° South 454 840 30.900 532 Climbing Salt Lake Center
Thu 15:32:49 44.4236 -112.1708 185° South 462 856 31.000 48 Climbing Salt Lake Center
Thu 15:33:51 44.2967 -112.1844 184° South 476 882 31.000  Level Salt Lake Center
Thu 15:34:53 44.1447 -112.2003 184° South 488 904 31.000  Level Salt Lake Center
Thu 15:35:54 44.0131 -112.1894 177° South 493 912 31.000  Level Salt Lake Center
Thu 15:36:56 43.8600 -112.1489 169° South 502 930 31.000  Level Salt Lake Center
Thu 15:37:58 43.7292 -112.1153 169° South 501 929 31.000  Level Salt Lake Center
Thu 15:38:59 43.5969 -112.0817 170° South 505 935 31.000  Level Salt Lake Center
Thu 15:40:01 43.4444 -112.0422 169° South 501 929 31.000  Level Salt Lake Center
Thu 15:41:03 43.3117 -112.0094 170° South 504 933 31.000  Level Salt Lake Center
Thu 15:42:05 43.1567 -111.9703 170° South 507 938 31.000  Level Salt Lake Center
Thu 15:43:06 43.0244 -111.9364 169° South 507 938 31.000  Level Salt Lake Center
Thu 15:44:08 42.8706 -111.8989 170° South 505 935 31.000  Level Salt Lake Center
Thu 15:45:10 42.7369 -111.8658 170° South 510 945 31.000  Level Salt Lake Center
Thu 15:46:11 42.5836 -111.8772 183° South 499 924 31.000  Level Salt Lake Center
Thu 15:47:13 42.4456 -111.8992 187° South 500 925 31.000  Level Salt Lake Center
Thu 15:48:15 42.3078 -111.9225 187° South 500 925 31.000 -195 Level Salt Lake Center
Thu 15:49:16 42.1706 -111.9467 187° South 499 924 30.600 -1.659 Descending Salt Lake Center
Thu 15:50:18 42.0311 -111.9700 187° South 504 933 27.600 -2.903 Descending Salt Lake Center
Thu 15:51:20 41.8989 -111.9914 187° South 484 896 24.600 -3.189 Descending Salt Lake Center
Thu 15:52:09 41.7806 -112.0056 185° South 455 843 21.700 -3.000 Descending Salt Lake Center
Thu 15:53:10 41.6639 -112.0256 187° South 430 797 19.100 -1.655 Descending Salt Lake Center
Thu 15:54:05 41.5653 -112.0392 186° South 385 713 18.500 -800 Descending Salt Lake Center
Thu 15:54:25 41.5306 -112.0506 194° South 383 710 18.100 -787 Descending Salt Lake Center
Thu 15:55:06 41.4578 -112.0619 187° South 389 721 17.700 -787 Descending Salt Lake Center
Thu 15:55:26 41.4244 -112.0706 191° South 387 716 17.300 -1.475 Descending Salt Lake Center
Thu 15:56:07 41.3542 -112.0831 188° South 379 702 16.200 -1.452 Descending Salt Lake Center
Thu 15:56:28 41.3239 -112.0933 194° South 370 686 15.800 -1.400 Descending Salt Lake Center
Thu 15:57:07 41.2578 -112.1072 189° South 358 663 14.800 -1.258 Descending Salt Lake Center
Thu 15:57:30 41.2275 -112.1150 191° South 356 660 14.500 -1.475 Descending Salt Lake Center
Thu 15:58:08 41.1522 -112.1289 188° South 358 663 13.300 -1.377 Descending Salt Lake Center
Thu 15:58:31 41.1314 -112.1342 191° South 353 653 13.100 -1.377 Descending Salt Lake Center
Thu 15:59:09 41.0558 -112.1417 184° South 351 650 11.900 -1.645 Descending Salt Lake Center
Thu 15:59:33 41.0186 -112.1339 171° South 344 637 11.400 -885 Descending Salt Lake Center
Thu 16:00:10 40.9617 -112.1225 171° South 343 636 11.000 -387 Descending Salt Lake Center
Thu 16:00:35 40.9272 -112.1161 172° South 335 621 11.000  Level Salt Lake Center
Thu 16:01:11 40.8769 -112.1086 174° South 310 575 11.000  Level Salt Lake Center
Thu 16:01:36 40.8481 -112.1039 173° South 279 517 11.000  Level Salt Lake Center
Thu 16:02:12 40.8047 -112.1017 178° South 230 426 11.000  Level Salt Lake Center
Thu 16:02:38 40.7842 -112.0958 168° South 231 428 11.000 -545 Level Salt Lake Center
Thu 16:03:07 40.7475 -112.0956 180° South 228 422 10.500 -968 Descending Salt Lake Center
Thu 16:03:40 40.7219 -112.0892 169° South 225 417 10.000 -1.100 Descending Salt Lake Center
Thu 16:04:07 40.6872 -112.0850 175° South 204 378 9.400 -984 Descending Salt Lake Center
Thu 16:04:41 40.6681 -112.0731 155° Southeast 202 373 9.000 -806 Descending Salt Lake Center
Thu 16:05:14 40.6425 -112.0433 139° Southeast 195 360 8.500 -871 Descending Salt Lake Center
Thu 16:05:43 40.6414 -112.0069 92° East 184 341 8.100 -1.082 Descending Salt Lake Center
Thu 16:06:15 40.6483 -111.9850 67° East 161 298 7.400 -1.355 Descending Salt Lake Center
Thu 16:06:45 40.6717 -111.9814 North 159 295 6.700 -1.309 Descending Salt Lake Center
Thu 16:07:10 40.6878 -111.9886 341° North 156 290 6.200 -1.200 Descending Salt Lake Center

Login

Don't have an account? Register now (free) for customized features, flight alerts, and more!